Taxiarchis S — SY6961 — position and weather

sailwx.info

Track history (hours):
 
Tides and Currents Weather Stations Pressure Air Temp Water Temp Dewpoint Dewpoint Depression Visibility Wind Speed Wind Dir Waves Ship Positions

Taxiarchis S

Last reported at 2017-Nov-19 18:54 UTC. Time now 2017-Nov-23 15:12 UTC.
Position N 40°24' E 024°13'.

Length 77 m; draft 5 m.

Type: Cargo ship. MMSI: 237989800.

Date/timePositionNaut miles runAvg speedWind from/ knotsBaromVisibWave heightAir tempDewpointWater temp
2017-Nov-19 18:54N 40°24' E 024°13'4 8.9
2017-Nov-19 18:30N 40°21' E 024°16'5 9.1
2017-Nov-19 18:00N 40°18' E 024°20'5 9.1
2017-Nov-19 17:30N 40°14' E 024°23'176 9.7
2017-Nov-18 23:23N 37°33' E 025°54'  
2017-Nov-16 17:05N 38°00' E 024°09'1 9.1
2017-Nov-16 17:00N 38°01' E 024°09'4 0.1
2017-Nov-15 07:28N 38°05' E 024°09'5 9.8
2017-Nov-15 06:58N 38°00' E 024°11'  
2017-Nov-11 00:50N 37°60' E 024°11'5 9.5
2017-Nov-11 00:17N 38°04' E 024°08'4 9.5
2017-Nov-10 23:51N 38°09' E 024°08'3 0.2
2017-Nov-10 10:00N 38°11' E 024°07'710.2
2017-Nov-10 09:21N 38°05' E 024°09'410.2
2017-Nov-10 09:00N 38°01' E 024°10'3610.6
2017-Nov-10 05:37N 37°41' E 024°48'110.5
2017-Nov-10 05:30N 37°40' E 024°49'510.5
2017-Nov-10 05:00N 37°38' E 024°54'510.5
2017-Nov-10 04:30N 37°35' E 025°00'510.5
2017-Nov-10 04:00N 37°32' E 025°06'5 9.9
2017-Nov-10 03:30N 37°30' E 025°12'510.0
2017-Nov-10 03:00N 37°28' E 025°17'2 3.7
2017-Nov-10 02:30N 37°28' E 025°20'0 0.0
2017-Nov-10 02:00N 37°28' E 025°20'0 0.0
2017-Nov-10 01:30N 37°28' E 025°20'0 0.0
2017-Nov-10 01:00N 37°28' E 025°20'0 0.0
2017-Nov-10 00:30N 37°28' E 025°20'0 0.0
2017-Nov-10 00:00N 37°28' E 025°20'0 0.0
2017-Nov-09 23:30N 37°28' E 025°20'0 0.0
2017-Nov-09 23:00N 37°28' E 025°20'0 0.0
2017-Nov-09 22:30N 37°28' E 025°20'0 0.0
2017-Nov-09 22:00N 37°28' E 025°20'0 0.0
2017-Nov-09 21:30N 37°28' E 025°20'0 0.0
2017-Nov-09 21:00N 37°28' E 025°20'0 0.0
2017-Nov-09 20:30N 37°28' E 025°20'0 0.0
2017-Nov-09 20:00N 37°28' E 025°20'0 0.0
2017-Nov-09 19:30N 37°28' E 025°20'0 0.0
2017-Nov-09 19:00N 37°28' E 025°20'  
Track history (hours):
 
Tides and Currents Weather Stations Pressure Air Temp Water Temp Dewpoint Dewpoint Depression Visibility Wind Speed Wind Dir Waves Ship Positions

Taxiarchis S

Last reported at 2017-Nov-19 18:54 UTC. Time now 2017-Nov-23 15:12 UTC.
Position N 40°24' E 024°13'.

Length 77 m; draft 5 m.

Type: Cargo ship. MMSI: 237989800.

Date/timePositionNaut miles runAvg speedWind from/ knotsBaromVisibWave heightAir tempDewpointWater temp
2017-Nov-19 18:54N 40°24' E 024°13'4 8.9
2017-Nov-19 18:30N 40°21' E 024°16'5 9.1
2017-Nov-19 18:00N 40°18' E 024°20'5 9.1
2017-Nov-19 17:30N 40°14' E 024°23'176 9.7
2017-Nov-18 23:23N 37°33' E 025°54'  
2017-Nov-16 17:05N 38°00' E 024°09'1 9.1
2017-Nov-16 17:00N 38°01' E 024°09'4 0.1
2017-Nov-15 07:28N 38°05' E 024°09'5 9.8
2017-Nov-15 06:58N 38°00' E 024°11'  
2017-Nov-11 00:50N 37°60' E 024°11'5 9.5
2017-Nov-11 00:17N 38°04' E 024°08'4 9.5
2017-Nov-10 23:51N 38°09' E 024°08'3 0.2
2017-Nov-10 10:00N 38°11' E 024°07'710.2
2017-Nov-10 09:21N 38°05' E 024°09'410.2
2017-Nov-10 09:00N 38°01' E 024°10'3610.6
2017-Nov-10 05:37N 37°41' E 024°48'110.5
2017-Nov-10 05:30N 37°40' E 024°49'510.5
2017-Nov-10 05:00N 37°38' E 024°54'510.5
2017-Nov-10 04:30N 37°35' E 025°00'510.5
2017-Nov-10 04:00N 37°32' E 025°06'5 9.9
2017-Nov-10 03:30N 37°30' E 025°12'510.0
2017-Nov-10 03:00N 37°28' E 025°17'2 3.7
2017-Nov-10 02:30N 37°28' E 025°20'0 0.0
2017-Nov-10 02:00N 37°28' E 025°20'0 0.0
2017-Nov-10 01:30N 37°28' E 025°20'0 0.0
2017-Nov-10 01:00N 37°28' E 025°20'0 0.0
2017-Nov-10 00:30N 37°28' E 025°20'0 0.0
2017-Nov-10 00:00N 37°28' E 025°20'0 0.0
2017-Nov-09 23:30N 37°28' E 025°20'0 0.0
2017-Nov-09 23:00N 37°28' E 025°20'0 0.0
2017-Nov-09 22:30N 37°28' E 025°20'0 0.0
2017-Nov-09 22:00N 37°28' E 025°20'0 0.0
2017-Nov-09 21:30N 37°28' E 025°20'0 0.0
2017-Nov-09 21:00N 37°28' E 025°20'0 0.0
2017-Nov-09 20:30N 37°28' E 025°20'0 0.0
2017-Nov-09 20:00N 37°28' E 025°20'0 0.0
2017-Nov-09 19:30N 37°28' E 025°20'0 0.0
2017-Nov-09 19:00N 37°28' E 025°20'  

Dump ship's entire track history